YADG weather

Aldinga Airport
Aldinga, South Australia, Australia

Public forecast

Using degrees Celsius for public forecast. Weather courtesy of forecast.io.

METAR (pilot weather report)

Closest report is Adelaide International Airport, 20.8 nm (38.5 km) N. Retrieved 2019/03/19 07:30 UTC (22 minutes ago):

YPAD 190730Z 21012KT CAVOK 24/17 Q1012 NOSIG

TAF (pilot weather forecast)

Closest forecast is Adelaide International Airport, 20.8 nm (38.5 km) N. Retrieved 2019/03/19 06:00 UTC (2 hours ago):

TAF YPAD 190503Z 1906/2012 22012KT CAVOK FM191000 VRB03KT CAVOK FM200100 26008KT CAVOK FM200400 23012KT CAVOK FM200900 VRB05KT CAVOK